Time;durP1;ratioP1;P1;durP2;ratioP2;P2;SDS_P1;SDS_P2;PMS_P1;PMS_P2;Temp;Humidity;BMP_temperature;BMP_pressure;BME280_temperature;BME280_humidity;BME280_pressure;Samples;Min_cycle;Max_cycle;Signal;HPM_P1;HPM_P2
2021/01/09 00:00:13;;;;;;;19.83;12.00;;;;;;;0.38;68.70;95759.78;5076057;28;20048;-42
2021/01/09 00:02:40;;;;;;;20.40;11.45;;;;;;;0.44;68.61;95758.72;5090483;28;20040;-43
2021/01/09 00:05:08;;;;;;;19.00;11.07;;;;;;;0.39;68.54;95755.25;5083037;28;20072;-45
2021/01/09 00:07:36;;;;;;;21.75;12.10;;;;;;;0.40;68.57;95762.19;5083431;28;20129;-44
2021/01/09 00:10:08;;;;;;;19.65;11.50;;;;;;;0.43;68.03;95761.66;5089402;28;20505;-43
2021/01/09 00:12:35;;;;;;;22.10;11.88;;;;;;;0.42;68.34;95750.22;5085562;28;20131;-42
2021/01/09 00:15:03;;;;;;;20.23;11.45;;;;;;;0.42;68.01;95765.38;5084291;28;20129;-42
2021/01/09 00:17:30;;;;;;;20.25;11.10;;;;;;;0.54;67.32;95755.22;5116930;22;20377;-41
2021/01/09 00:19:56;;;;;;;20.52;11.60;;;;;;;0.17;68.69;95758.28;5108536;28;20451;-41
2021/01/09 00:22:23;;;;;;;19.38;11.05;;;;;;;0.26;68.20;95761.16;5114500;28;20047;-41
2021/01/09 00:24:50;;;;;;;20.40;11.82;;;;;;;0.16;68.67;95752.16;5113752;28;20627;-42
2021/01/09 00:27:16;;;;;;;19.73;10.98;;;;;;;0.43;68.19;95754.47;5098021;28;20051;-41
2021/01/09 00:29:44;;;;;;;17.08;10.85;;;;;;;0.53;67.93;95758.94;5093481;28;20500;-43
2021/01/09 00:32:11;;;;;;;19.58;11.27;;;;;;;0.55;67.71;95762.13;5083467;28;20101;-42
2021/01/09 00:34:38;;;;;;;16.80;9.90;;;;;;;0.22;68.63;95760.91;5090860;28;20052;-39
2021/01/09 00:37:05;;;;;;;18.33;11.43;;;;;;;0.42;68.60;95776.00;5092556;28;20417;-40
2021/01/09 00:39:32;;;;;;;18.58;10.90;;;;;;;0.44;68.10;95769.34;5092572;28;20443;-40
2021/01/09 00:41:59;;;;;;;19.25;10.43;;;;;;;0.01;69.77;95770.81;5094389;28;20059;-40
2021/01/09 00:44:26;;;;;;;17.88;10.85;;;;;;;0.07;69.19;95760.97;5083319;28;20086;-40
2021/01/09 00:46:57;;;;;;;18.67;10.60;;;;;;;0.10;69.61;95769.19;5093592;28;20054;-42
2021/01/09 00:49:25;;;;;;;18.70;10.20;;;;;;;0.03;70.01;95762.53;5078169;28;20067;-41
2021/01/09 00:51:51;;;;;;;18.60;10.95;;;;;;;0.23;69.68;95760.66;5087065;28;20496;-41
2021/01/09 00:54:17;;;;;;;17.58;10.43;;;;;;;0.23;68.88;95757.19;5092954;28;20044;-41
2021/01/09 00:56:44;;;;;;;17.65;9.85;;;;;;;0.08;69.19;95747.38;5086928;28;20455;-40
2021/01/09 00:59:10;;;;;;;17.60;10.90;;;;;;;0.19;69.62;95761.44;5079812;28;20139;-40
2021/01/09 01:01:38;;;;;;;20.05;11.73;;;;;;;0.43;68.81;95759.00;5093533;28;20105;-39
2021/01/09 01:04:04;;;;;;;17.45;10.75;;;;;;;0.60;68.11;95758.66;5092787;28;20175;-41
2021/01/09 01:06:31;;;;;;;19.52;11.25;;;;;;;0.53;68.09;95761.63;5086463;28;20075;-39
2021/01/09 01:08:58;;;;;;;20.23;12.13;;;;;;;0.52;68.18;95764.53;5081050;28;20063;-40
2021/01/09 01:11:26;;;;;;;20.00;11.05;;;;;;;0.52;68.23;95764.53;5083925;28;20084;-42
2021/01/09 01:13:54;;;;;;;17.63;10.75;;;;;;;0.39;67.92;95750.75;5077317;28;20051;-40
2021/01/09 01:16:24;;;;;;;19.52;11.85;;;;;;;0.49;68.81;95765.06;5089983;28;20082;-39
2021/01/09 01:18:51;;;;;;;18.85;10.93;;;;;;;0.41;68.50;95769.91;5084763;28;20055;-41
2021/01/09 01:21:18;;;;;;;18.13;10.13;;;;;;;0.48;68.69;95772.28;5082923;28;20070;-40
2021/01/09 01:23:45;;;;;;;19.08;10.93;;;;;;;0.50;68.51;95774.69;5093224;28;20572;-41
2021/01/09 01:26:12;;;;;;;18.58;11.38;;;;;;;0.60;67.47;95770.09;5091156;28;20074;-42
2021/01/09 01:28:40;;;;;;;18.73;10.63;;;;;;;-0.15;70.17;95761.25;5091783;28;20060;-43
2021/01/09 01:31:08;;;;;;;19.77;11.38;;;;;;;0.33;69.04;95767.81;5091230;28;20105;-42
2021/01/09 01:33:37;;;;;;;18.83;10.43;;;;;;;0.39;68.79;95771.22;5093524;28;20056;-44
2021/01/09 01:36:04;;;;;;;22.55;11.43;;;;;;;0.35;68.88;95776.31;5086309;28;20141;-42
2021/01/09 01:38:31;;;;;;;18.13;10.38;;;;;;;0.26;68.90;95769.97;5072366;28;20512;-41
2021/01/09 01:41:06;;;;;;;20.08;11.55;;;;;;;0.24;68.97;95785.38;5087780;28;20040;-42
2021/01/09 01:43:33;;;;;;;17.58;11.45;;;;;;;0.40;69.04;95778.97;5093140;28;20574;-41
2021/01/09 01:46:02;;;;;;;17.00;10.45;;;;;;;0.33;69.00;95782.97;5091152;28;20044;-41
2021/01/09 01:48:29;;;;;;;21.38;12.00;;;;;;;0.45;69.10;95780.78;5091990;28;20135;-41
2021/01/09 01:50:57;;;;;;;18.35;10.38;;;;;;;0.40;68.43;95773.63;5074734;28;20130;-41
2021/01/09 01:53:26;;;;;;;18.52;10.43;;;;;;;0.43;68.38;95766.97;5093394;28;20044;-41
2021/01/09 01:55:53;;;;;;;22.95;11.48;;;;;;;0.57;68.60;95775.19;5056724;28;20055;-44
2021/01/09 01:58:20;;;;;;;18.38;10.93;;;;;;;0.50;67.89;95782.66;5086490;28;20135;-42
2021/01/09 02:00:47;;;;;;;20.48;11.15;;;;;;;0.39;68.65;95768.56;5092112;28;20145;-40
2021/01/09 02:03:21;;;;;;;17.30;10.82;;;;;;;0.50;68.63;95786.13;5092364;28;20036;-41
2021/01/09 02:06:05;;;;;;;19.83;11.95;;;;;;;0.44;68.87;95779.22;5082940;28;20055;-41
2021/01/09 02:08:39;;;;;;;21.20;11.93;;;;;;;0.51;68.73;95776.25;5087436;28;20089;-40
2021/01/09 02:11:13;;;;;;;17.88;11.23;;;;;;;0.42;69.22;95781.34;5089317;28;20059;-40
2021/01/09 02:13:48;;;;;;;22.20;11.68;;;;;;;0.43;68.70;95775.75;5086593;28;20098;-39
2021/01/09 02:16:15;;;;;;;18.55;11.20;;;;;;;0.39;69.42;95776.56;5090203;28;20083;-40
2021/01/09 02:18:43;;;;;;;18.80;10.85;;;;;;;0.38;68.91;95769.66;5076499;28;20052;-42
2021/01/09 02:21:37;;;;;;;21.90;12.13;;;;;;;0.43;69.25;95777.63;5061410;28;20131;-41
2021/01/09 02:24:15;;;;;;;20.33;11.93;;;;;;;0.21;69.56;95776.06;5090923;28;20052;-41
2021/01/09 02:26:41;;;;;;;22.25;12.30;;;;;;;0.37;69.61;95773.38;5087614;28;20083;-41
2021/01/09 02:29:09;;;;;;;20.98;11.95;;;;;;;0.34;69.35;95780.03;5072948;28;20051;-40
2021/01/09 02:32:00;;;;;;;19.58;11.52;;;;;;;0.39;69.65;95779.22;5090511;28;20044;-40
2021/01/09 02:34:40;;;;;;;20.17;11.90;;;;;;;0.45;69.30;95770.16;5092284;28;20052;-39
2021/01/09 02:37:08;;;;;;;21.48;12.52;;;;;;;0.43;69.17;95782.94;5090135;28;20048;-39
2021/01/09 02:39:34;;;;;;;20.23;11.48;;;;;;;0.56;68.75;95776.25;5090602;28;20463;-40
2021/01/09 02:42:02;;;;;;;23.05;13.40;;;;;;;0.64;68.37;95768.47;5089620;28;20048;-40
2021/01/09 02:44:30;;;;;;;25.42;12.25;;;;;;;0.52;68.44;95770.69;5090605;28;20052;-39
2021/01/09 02:46:56;;;;;;;19.33;10.90;;;;;;;0.19;69.59;95775.53;5091410;28;20083;-40
2021/01/09 02:49:23;;;;;;;19.83;12.35;;;;;;;0.31;69.33;95771.81;5076328;28;20076;-40
2021/01/09 02:51:49;;;;;;;20.88;12.30;;;;;;;0.43;69.26;95777.63;5090510;28;20143;-39
2021/01/09 02:54:16;;;;;;;24.20;12.80;;;;;;;0.49;68.88;95781.88;5090936;28;20047;-41
2021/01/09 02:56:42;;;;;;;21.17;12.20;;;;;;;0.18;69.91;95779.28;5087742;28;20154;-41
2021/01/09 02:59:08;;;;;;;21.67;12.18;;;;;;;0.12;70.31;95776.91;5087634;28;20257;-42
2021/01/09 03:01:35;;;;;;;21.60;12.13;;;;;;;0.21;69.72;95780.59;5090943;28;20048;-41
2021/01/09 03:04:02;;;;;;;21.88;12.73;;;;;;;0.25;70.11;95780.88;5091135;28;20620;-41
2021/01/09 03:06:29;;;;;;;22.65;12.32;;;;;;;0.32;69.74;95786.69;5090069;28;20191;-42
2021/01/09 03:08:55;;;;;;;19.98;11.57;;;;;;;0.35;69.49;95780.84;5072909;28;20762;-41
2021/01/09 03:11:22;;;;;;;22.55;12.73;;;;;;;0.08;70.29;95781.97;5090008;28;20067;-42
2021/01/09 03:13:49;;;;;;;24.95;13.93;;;;;;;-0.01;71.22;95780.91;5087321;28;20044;-41
2021/01/09 03:16:15;;;;;;;21.85;12.95;;;;;;;-0.04;71.08;95774.25;5077900;28;20119;-42
2021/01/09 03:18:42;;;;;;;25.52;13.68;;;;;;;0.10;69.90;95774.53;5083629;28;20428;-42
2021/01/09 03:21:08;;;;;;;22.52;13.30;;;;;;;0.29;69.86;95772.06;5090514;28;20581;-41
2021/01/09 03:23:35;;;;;;;22.73;12.73;;;;;;;0.27;69.75;95784.84;5090473;28;20123;-41
2021/01/09 03:26:02;;;;;;;23.48;12.52;;;;;;;0.21;69.84;95770.75;5087008;28;20051;-41
2021/01/09 03:28:29;;;;;;;20.58;12.27;;;;;;;0.26;69.62;95798.41;5070181;28;20076;-43
2021/01/09 03:30:55;;;;;;;19.80;11.57;;;;;;;0.25;69.91;95784.31;5090404;28;20050;-43
2021/01/09 03:33:22;;;;;;;22.20;12.52;;;;;;;0.43;69.32;95782.94;5090521;28;20036;-42
2021/01/09 03:35:48;;;;;;;22.42;12.95;;;;;;;0.27;70.03;95784.84;5075337;28;20044;-42
2021/01/09 03:38:15;;;;;;;21.60;12.55;;;;;;;0.01;70.50;95789.44;5089533;28;20413;-43
2021/01/09 03:40:41;;;;;;;24.20;13.60;;;;;;;0.08;70.67;95776.66;5090356;28;20109;-40
2021/01/09 03:43:08;;;;;;;22.52;12.93;;;;;;;0.15;70.69;95787.78;5077984;28;20051;-40
2021/01/09 03:45:34;;;;;;;22.23;12.32;;;;;;;0.25;70.23;95789.63;5088983;28;20052;-42
2021/01/09 03:48:01;;;;;;;21.77;12.80;;;;;;;0.13;70.53;95787.28;5086561;28;20040;-43
2021/01/09 03:50:28;;;;;;;22.05;12.20;;;;;;;0.10;70.65;95795.81;5087625;28;20394;-42
2021/01/09 03:52:54;;;;;;;22.55;13.43;;;;;;;-0.04;71.19;95787.56;5087178;28;20055;-42
2021/01/09 03:55:21;;;;;;;24.13;13.63;;;;;;;0.11;70.91;95786.75;5093793;28;20390;-41
2021/01/09 03:57:47;;;;;;;22.20;12.65;;;;;;;0.07;71.14;95792.88;5081906;28;20208;-41
2021/01/09 04:00:14;;;;;;;25.70;13.57;;;;;;;0.12;70.72;95788.34;5075226;28;20140;-43
2021/01/09 04:02:41;;;;;;;23.80;13.07;;;;;;;0.03;71.43;95789.16;5093984;28;20473;-43
2021/01/09 04:05:08;;;;;;;22.10;12.80;;;;;;;0.14;70.79;95783.56;5095138;28;20058;-42
2021/01/09 04:07:34;;;;;;;22.48;13.40;;;;;;;0.20;70.66;95790.47;5082040;28;20058;-42
2021/01/09 04:10:02;;;;;;;23.45;13.52;;;;;;;0.28;70.05;95789.09;5090701;28;20059;-43
2021/01/09 04:12:28;;;;;;;25.00;14.30;;;;;;;0.08;71.01;95781.97;5064128;28;20040;-43
2021/01/09 04:14:55;;;;;;;25.80;14.23;;;;;;;0.05;71.04;95782.50;5093760;28;20393;-42
2021/01/09 04:17:22;;;;;;;24.05;13.27;;;;;;;0.07;71.14;95780.38;5080698;28;20083;-42
2021/01/09 04:19:48;;;;;;;24.95;13.93;;;;;;;0.20;70.76;95787.81;5091602;28;20048;-42
2021/01/09 04:22:15;;;;;;;23.75;14.10;;;;;;;0.22;70.51;95787.50;5094265;28;20060;-42
2021/01/09 04:24:41;;;;;;;24.83;13.05;;;;;;;0.24;70.45;95790.72;5094803;28;20449;-43
2021/01/09 04:27:07;;;;;;;25.05;14.38;;;;;;;0.20;70.28;95777.16;5093682;28;20470;-41
2021/01/09 04:29:34;;;;;;;22.13;12.32;;;;;;;0.00;70.78;95790.50;5083509;28;20052;-41
2021/01/09 04:32:01;;;;;;;25.02;14.45;;;;;;;0.22;70.61;95790.97;5095028;28;20132;-42
2021/01/09 04:34:28;;;;;;;25.63;15.20;;;;;;;0.26;70.30;95785.94;5076541;28;20074;-41
2021/01/09 04:36:55;;;;;;;23.02;13.30;;;;;;;0.22;70.51;95790.16;5089768;28;20040;-42
2021/01/09 04:39:21;;;;;;;27.27;14.55;;;;;;;0.21;70.39;95785.94;5080036;28;20400;-42
2021/01/09 04:41:48;;;;;;;24.52;14.82;;;;;;;0.20;70.53;95782.47;5093522;28;20086;-40
2021/01/09 04:44:15;;;;;;;27.42;14.80;;;;;;;0.33;70.30;95801.63;5093580;28;20040;-41
2021/01/09 04:46:51;;;;;;;24.40;13.52;;;;;;;0.42;70.23;95799.97;5089329;28;20114;-40
2021/01/09 04:49:20;;;;;;;24.45;14.75;;;;;;;0.29;69.77;95800.53;5079123;28;20473;-40
2021/01/09 04:51:47;;;;;;;24.50;14.55;;;;;;;0.18;70.55;95800.56;5073904;28;20049;-40
2021/01/09 04:54:17;;;;;;;26.10;14.75;;;;;;;-0.12;71.60;95797.94;5092668;28;20044;-40
2021/01/09 04:56:45;;;;;;;22.95;14.38;;;;;;;-0.08;71.48;95809.66;5091247;28;20390;-42
2021/01/09 04:59:16;;;;;;;26.95;14.50;;;;;;;-0.10;71.94;95798.47;5074813;28;20102;-40
2021/01/09 05:01:44;;;;;;;25.35;14.25;;;;;;;0.00;71.68;95801.16;5093459;28;20135;-40
2021/01/09 05:04:15;;;;;;;25.13;14.00;;;;;;;0.10;71.12;95805.63;5092535;28;20366;-42
2021/01/09 05:06:43;;;;;;;26.60;15.38;;;;;;;-0.08;71.48;95799.00;5092073;28;20056;-40
2021/01/09 05:09:11;;;;;;;24.67;14.43;;;;;;;-0.63;71.67;95702.28;5090916;28;20059;-43
2021/01/09 05:11:40;;;;;;;24.48;14.15;;;;;;;0.02;71.31;95806.97;5086436;28;20045;-41
2021/01/09 05:14:07;;;;;;;23.17;13.77;;;;;;;0.23;70.47;95811.22;5075514;28;20052;-42
2021/01/09 05:16:35;;;;;;;23.50;13.85;;;;;;;0.35;70.01;95818.09;5079847;28;20137;-43
2021/01/09 05:19:04;;;;;;;24.95;13.65;;;;;;;0.30;70.22;95807.47;5081979;28;20422;-43
2021/01/09 05:21:33;;;;;;;25.40;15.13;;;;;;;0.36;69.61;95828.47;5092023;28;20109;-43
2021/01/09 05:24:07;;;;;;;25.63;14.30;;;;;;;0.22;70.29;95819.44;5073167;28;20045;-42
2021/01/09 05:26:37;;;;;;;26.35;15.40;;;;;;;0.22;70.69;95817.56;5083674;28;20074;-42
2021/01/09 05:29:06;;;;;;;26.17;14.52;;;;;;;0.46;70.08;95825.00;5092398;28;20078;-42
2021/01/09 05:31:36;;;;;;;25.15;15.30;;;;;;;0.39;69.76;95832.44;5092474;28;20044;-43
2021/01/09 05:34:04;;;;;;;25.55;14.43;;;;;;;0.34;69.38;95829.81;5073017;28;20059;-40
2021/01/09 05:36:31;;;;;;;25.02;14.80;;;;;;;0.49;69.14;95832.44;5089351;28;20127;-40
2021/01/09 05:38:59;;;;;;;25.92;14.38;;;;;;;0.55;68.72;95833.22;5092334;28;20058;-39
2021/01/09 05:41:26;;;;;;;22.85;13.68;;;;;;;0.53;68.63;95827.38;5091198;28;20105;-40
2021/01/09 05:44:04;;;;;;;27.33;15.48;;;;;;;0.57;68.94;95837.19;5074340;28;20437;-41
2021/01/09 05:46:36;;;;;;;23.83;14.35;;;;;;;0.52;69.34;95831.91;5090933;28;20436;-40
2021/01/09 05:49:05;;;;;;;23.27;13.88;;;;;;;0.19;70.06;95838.59;5072744;28;20108;-43
2021/01/09 05:51:33;;;;;;;25.77;15.02;;;;;;;0.11;70.66;95839.16;5090235;28;20398;-40
2021/01/09 05:54:00;;;;;;;24.90;15.35;;;;;;;0.08;70.72;95843.16;5092417;28;20058;-40
2021/01/09 05:56:27;;;;;;;24.55;14.02;;;;;;;0.17;70.77;95838.09;5087779;28;20056;-41
2021/01/09 05:58:55;;;;;;;26.65;14.30;;;;;;;0.41;69.98;95838.31;5071947;28;20455;-42
2021/01/09 06:01:29;;;;;;;22.50;13.75;;;;;;;0.43;69.31;95831.66;5088972;28;20044;-42
2021/01/09 06:04:04;;;;;;;24.13;14.13;;;;;;;0.22;69.99;95840.72;5092210;28;20070;-41
2021/01/09 06:07:04;;;;;;;24.58;14.93;;;;;;;-0.08;71.13;95831.72;5088302;28;20051;-41
2021/01/09 06:09:35;;;;;;;26.13;15.13;;;;;;;0.07;70.56;95844.22;5088805;28;20056;-41
2021/01/09 06:12:06;;;;;;;24.92;14.90;;;;;;;0.15;70.40;95841.00;5082261;28;20131;-42
2021/01/09 06:14:35;;;;;;;23.58;14.27;;;;;;;0.23;70.39;95843.13;5084790;28;20110;-43
2021/01/09 06:17:03;;;;;;;23.88;14.13;;;;;;;0.25;69.41;95850.84;5114195;22;20036;-44
2021/01/09 06:19:31;;;;;;;23.92;13.65;;;;;;;0.51;69.04;95846.25;5116227;27;20048;-44
2021/01/09 06:22:00;;;;;;;25.05;14.93;;;;;;;0.51;68.95;95846.25;5116487;27;20043;-45
2021/01/09 06:24:27;;;;;;;26.10;14.38;;;;;;;0.39;68.94;95851.06;5132966;27;20399;-44
2021/01/09 06:26:55;;;;;;;25.52;15.13;;;;;;;0.32;69.09;95839.91;5123912;27;20070;-45
2021/01/09 06:29:29;;;;;;;25.52;15.10;;;;;;;-0.04;70.47;95838.09;5115550;27;20097;-44
2021/01/09 06:32:03;;;;;;;24.58;14.05;;;;;;;-0.20;70.73;95849.78;5133354;27;20130;-45
2021/01/09 06:34:31;;;;;;;26.60;14.70;;;;;;;-0.52;71.80;95847.38;5128714;27;20095;-46
2021/01/09 06:37:03;;;;;;;25.92;14.98;;;;;;;-0.21;71.77;95856.19;5130415;27;20047;-43
2021/01/09 06:39:36;;;;;;;24.13;14.10;;;;;;;0.04;70.85;95850.06;5128482;27;20039;-47
2021/01/09 06:42:04;;;;;;;;;;;;;;;0.26;69.98;95857.78;5132670;27;20419;-43
2021/01/09 06:44:31;;;;;;;25.42;13.90;;;;;;;0.27;69.76;95854.03;5116799;27;19919;-45
2021/01/09 06:46:57;;;;;;;25.67;14.93;;;;;;;0.03;69.96;95832.50;5125069;27;20051;-45
2021/01/09 06:49:25;;;;;;;24.25;13.93;;;;;;;0.12;69.90;95856.72;5114462;27;20051;-44
2021/01/09 06:51:54;;;;;;;29.42;14.75;;;;;;;-0.15;71.00;95859.66;5124692;27;20130;-46
2021/01/09 06:54:22;;;;;;;25.75;13.85;;;;;;;-0.16;71.40;95866.00;5132846;27;20448;-45
2021/01/09 06:56:50;;;;;;;27.88;15.57;;;;;;;-0.03;70.68;95860.97;5131995;27;20047;-41
2021/01/09 06:59:28;;;;;;;24.13;13.85;;;;;;;-0.04;71.07;95864.69;5132075;27;20502;-41
2021/01/09 07:02:13;;;;;;;24.25;13.60;;;;;;;0.15;69.76;95856.97;5132098;27;20047;-41
2021/01/09 07:04:55;;;;;;;25.48;14.18;;;;;;;0.04;70.55;95866.03;5131432;27;20081;-44
2021/01/09 07:07:30;;;;;;;24.52;13.80;;;;;;;-0.18;71.18;95857.53;5127111;27;20527;-41
2021/01/09 07:10:10;;;;;;;26.33;15.23;;;;;;;-0.38;71.37;95872.38;5132487;27;20047;-40
2021/01/09 07:12:39;;;;;;;28.40;14.70;;;;;;;-0.49;71.98;95874.25;5117891;27;20047;-40
2021/01/09 07:15:08;;;;;;;25.40;12.73;;;;;;;-0.52;71.74;95874.75;5145511;27;20078;-44
2021/01/09 07:17:37;;;;;;;27.80;14.57;;;;;;;-0.53;72.34;95883.78;5129137;27;20051;-45
2021/01/09 07:20:09;;;;;;;23.58;14.20;;;;;;;-0.21;71.83;95879.31;5131502;27;20554;-42
2021/01/09 07:22:42;;;;;;;24.98;14.65;;;;;;;-0.05;70.64;95878.25;5127808;27;20059;-42
2021/01/09 07:25:09;;;;;;;23.10;13.40;;;;;;;0.19;69.99;95884.63;5131639;27;20051;-43
2021/01/09 07:27:44;;;;;;;24.10;13.52;;;;;;;0.20;70.18;95888.09;5122797;27;20578;-45
2021/01/09 07:30:16;;;;;;;24.10;14.35;;;;;;;0.46;69.11;95895.00;5131865;27;20058;-45
2021/01/09 07:32:51;;;;;;;25.92;14.57;;;;;;;0.40;69.27;95895.28;5113081;28;20093;-41
2021/01/09 07:35:23;;;;;;;23.48;14.00;;;;;;;0.55;68.97;95897.88;5131388;27;20468;-42
2021/01/09 07:37:54;;;;;;;25.50;14.07;;;;;;;0.52;68.46;95893.13;5125952;28;20119;-42
2021/01/09 07:40:21;;;;;;;24.00;14.00;;;;;;;0.09;69.62;95905.13;5131808;27;20055;-42
2021/01/09 07:42:49;;;;;;;25.35;14.23;;;;;;;-0.16;70.56;95898.75;5121509;28;20166;-42
2021/01/09 07:45:21;;;;;;;23.98;13.45;;;;;;;-0.31;71.17;95902.16;5122070;28;20051;-43
2021/01/09 07:47:50;;;;;;;25.30;15.00;;;;;;;-0.39;72.02;95899.22;5128201;27;20577;-42
2021/01/09 07:50:18;;;;;;;26.75;16.02;;;;;;;-0.20;71.59;95899.50;5121015;28;20051;-46
2021/01/09 07:52:46;;;;;;;24.73;14.35;;;;;;;-0.25;71.46;95895.81;5131407;28;20048;-46
2021/01/09 07:55:17;;;;;;;25.83;14.73;;;;;;;-0.06;71.46;95909.38;5131674;27;20070;-42
2021/01/09 07:57:44;;;;;;;25.77;14.40;;;;;;;-0.13;70.79;95886.75;5126631;28;20055;-48
2021/01/09 08:00:15;;;;;;;24.10;14.60;;;;;;;0.13;70.90;95900.84;5119154;28;20130;-44
2021/01/09 08:02:44;;;;;;;28.15;14.70;;;;;;;0.35;69.85;95911.22;5129636;28;20079;-45
2021/01/09 08:05:21;;;;;;;23.08;14.32;;;;;;;0.29;69.87;95912.28;5123216;28;20044;-44
2021/01/09 08:07:47;;;;;;;28.23;15.95;;;;;;;0.16;70.51;95922.44;5124044;28;20058;-43
2021/01/09 08:10:26;;;;;;;25.63;14.52;;;;;;;-0.25;71.65;95914.41;5131180;27;20043;-49
2021/01/09 08:13:01;;;;;;;26.80;15.02;;;;;;;-0.47;72.93;95919.94;5146503;27;20058;-42
2021/01/09 08:15:29;;;;;;;26.20;15.20;;;;;;;-0.51;73.68;95923.41;5137745;27;20491;-44
2021/01/09 08:18:00;;;;;;;26.05;15.52;;;;;;;-0.40;73.21;95927.66;5126743;27;20043;-43
2021/01/09 08:20:27;;;;;;;25.38;15.27;;;;;;;-0.49;73.24;95906.13;5119841;28;20047;-46
2021/01/09 08:22:57;;;;;;;28.90;15.80;;;;;;;-0.37;73.20;95929.81;5130583;27;20074;-43
2021/01/09 08:25:27;;;;;;;25.25;14.95;;;;;;;-0.29;73.05;95929.31;5131359;27;20063;-42
2021/01/09 08:28:02;;;;;;;27.60;14.93;;;;;;;0.07;72.12;95933.88;5127662;27;20511;-47
2021/01/09 08:30:32;;;;;;;28.85;14.98;;;;;;;0.25;71.12;95932.53;5118918;28;20484;-42
2021/01/09 08:33:16;;;;;;;28.27;15.68;;;;;;;0.44;71.07;95941.56;5131067;27;20384;-45
2021/01/09 08:35:45;;;;;;;25.23;14.73;;;;;;;0.51;70.93;95935.97;5119271;28;20093;-45
2021/01/09 08:38:12;;;;;;;25.45;14.15;;;;;;;0.59;70.00;95946.09;5127438;27;20051;-45
2021/01/09 08:40:40;;;;;;;26.40;14.77;;;;;;;0.60;70.34;95943.16;5133909;27;20364;-47
2021/01/09 08:43:08;;;;;;;26.20;15.40;;;;;;;0.70;69.22;95945.00;5125789;27;20561;-51
2021/01/09 08:45:47;;;;;;;25.58;14.60;;;;;;;0.55;69.32;95935.16;5117273;27;20060;-43
2021/01/09 08:48:17;;;;;;;24.65;13.40;;;;;;;0.45;69.50;95946.63;5128707;27;20047;-46
2021/01/09 08:51:06;;;;;;;22.88;13.40;;;;;;;0.76;68.77;95938.59;5118027;27;20047;-41
2021/01/09 08:53:54;;;;;;;23.65;14.18;;;;;;;0.44;68.72;95923.72;5134012;27;20092;-44
2021/01/09 08:56:29;;;;;;;21.10;12.38;;;;;;;0.57;68.73;95943.69;5125649;27;20447;-41
2021/01/09 08:59:02;;;;;;;22.83;13.90;;;;;;;0.72;68.74;95955.41;5129586;27;20051;-42
2021/01/09 09:01:46;;;;;;;24.40;13.57;;;;;;;0.82;68.27;95952.72;5134644;27;20111;-42
2021/01/09 09:04:16;;;;;;;21.33;11.77;;;;;;;0.64;68.32;95954.06;5131627;27;21540;-42
2021/01/09 09:06:44;;;;;;;22.50;13.68;;;;;;;0.65;68.31;95951.16;5133559;27;20051;-47
2021/01/09 09:09:17;;;;;;;22.58;13.73;;;;;;;0.73;68.65;95955.13;5133607;27;20716;-46
2021/01/09 09:11:53;;;;;;;20.25;12.48;;;;;;;0.67;67.33;95917.03;5138451;27;20492;-42
2021/01/09 09:14:20;;;;;;;20.15;12.20;;;;;;;0.83;67.20;95956.97;5117608;27;20043;-44
2021/01/09 09:16:57;;;;;;;23.05;13.15;;;;;;;0.89;66.88;95953.22;5125350;27;20047;-43
2021/01/09 09:19:24;;;;;;;21.27;13.13;;;;;;;0.89;66.94;95964.69;5131955;27;20138;-42
2021/01/09 09:22:00;;;;;;;21.35;12.60;;;;;;;0.95;66.76;95960.16;5132852;27;20051;-43
2021/01/09 09:24:40;;;;;;;24.00;13.35;;;;;;;0.90;66.65;95960.16;5133704;27;20051;-41
2021/01/09 09:27:30;;;;;;;21.98;12.73;;;;;;;1.12;66.40;95963.28;5132421;27;20107;-47
2021/01/09 09:30:13;;;;;;;21.23;12.52;;;;;;;1.23;65.60;95955.25;5114366;28;20063;-45
2021/01/09 09:32:43;;;;;;;19.85;12.52;;;;;;;1.35;64.95;95969.09;5131820;27;20396;-48
2021/01/09 09:35:23;;;;;;;20.02;11.98;;;;;;;1.47;64.80;95972.25;5128411;27;20118;-48
2021/01/09 09:37:52;;;;;;;22.17;13.65;;;;;;;1.41;64.31;95970.66;5115756;27;20058;-46
2021/01/09 09:40:26;;;;;;;21.63;13.63;;;;;;;1.43;64.70;95973.88;5132068;27;20427;-45
2021/01/09 09:42:53;;;;;;;21.30;12.18;;;;;;;1.36;64.81;95968.00;5133632;27;20098;-43
2021/01/09 09:45:21;;;;;;;24.77;14.00;;;;;;;1.44;64.41;95964.78;5114628;27;20055;-42
2021/01/09 09:47:50;;;;;;;21.58;12.82;;;;;;;1.56;64.19;95957.28;5128973;27;20047;-46
2021/01/09 09:50:21;;;;;;;21.13;13.13;;;;;;;1.58;64.39;95968.44;5112851;28;20100;-50
2021/01/09 09:52:58;;;;;;;22.52;13.65;;;;;;;1.54;64.48;95954.06;5132139;27;20047;-47
2021/01/09 09:55:25;;;;;;;20.30;12.80;;;;;;;1.45;64.13;95925.59;5134083;27;20055;-45
2021/01/09 09:58:08;;;;;;;20.33;12.85;;;;;;;1.62;63.56;95953.50;5130007;27;20082;-46
2021/01/09 10:00:40;;;;;;;22.15;13.57;;;;;;;1.46;64.18;95940.50;5115852;27;20055;-43
2021/01/09 10:03:07;;;;;;;21.35;13.35;;;;;;;1.65;63.98;95938.81;5134209;27;20066;-46
2021/01/09 10:05:33;;;;;;;27.95;16.55;;;;;;;1.63;63.33;95923.09;5131821;27;20108;-46
2021/01/09 10:08:09;;;;;;;24.30;14.68;;;;;;;1.61;63.90;95941.25;5128855;27;20047;-42
2021/01/09 10:10:40;;;;;;;21.83;13.70;;;;;;;1.69;63.98;95937.22;5130448;27;20112;-44
2021/01/09 10:13:07;;;;;;;22.15;13.52;;;;;;;1.96;63.38;95935.97;5138976;27;20070;-47
2021/01/09 10:15:33;;;;;;;24.10;14.68;;;;;;;1.89;63.32;95930.97;5119191;27;20054;-44
2021/01/09 10:18:01;;;;;;;25.50;14.77;;;;;;;1.91;63.05;95918.13;5123865;27;20062;-44
2021/01/09 10:20:28;;;;;;;24.08;14.88;;;;;;;2.04;62.55;95932.72;5130922;27;20495;-46
2021/01/09 10:22:55;;;;;;;27.23;15.98;;;;;;;2.21;61.89;95926.97;5131694;27;20092;-43
2021/01/09 10:25:22;;;;;;;22.88;14.30;;;;;;;2.27;61.73;95931.22;5131716;27;20062;-44
2021/01/09 10:27:51;;;;;;;22.10;14.38;;;;;;;2.08;62.49;95913.22;5126457;27;20047;-47
2021/01/09 10:30:19;;;;;;;22.65;13.63;;;;;;;2.03;62.88;95918.56;5116687;27;20404;-45
2021/01/09 10:32:45;;;;;;;22.13;13.60;;;;;;;1.94;62.88;95909.56;5133185;27;20661;-44
2021/01/09 10:35:12;;;;;;;24.23;15.07;;;;;;;2.09;62.61;95928.16;5129645;27;20500;-46
2021/01/09 10:37:39;;;;;;;23.58;14.52;;;;;;;2.03;62.69;95929.25;5122539;27;20139;-47
2021/01/09 10:40:06;;;;;;;21.05;13.57;;;;;;;2.05;62.68;95923.66;5133173;27;20644;-44
2021/01/09 10:42:32;;;;;;;20.40;12.57;;;;;;;2.17;61.92;95921.41;5133352;27;20047;-42
2021/01/09 10:45:19;;;;;;;23.13;13.52;;;;;;;2.35;61.58;95922.63;5128902;27;20071;-45
2021/01/09 10:47:45;;;;;;;19.30;11.77;;;;;;;2.33;60.79;95914.88;5128258;27;20346;-46
2021/01/09 10:50:19;;;;;;;20.05;13.43;;;;;;;2.32;61.68;95918.63;5119919;27;20062;-46
2021/01/09 10:52:46;;;;;;;18.35;11.85;;;;;;;2.30;61.66;95917.31;5132951;27;20054;-46
2021/01/09 10:55:12;;;;;;;19.38;12.23;;;;;;;2.54;60.90;95914.72;5133468;27;20598;-43
2021/01/09 10:57:39;;;;;;;24.98;13.73;;;;;;;2.50;61.27;95906.47;5122764;27;21016;-44
2021/01/09 11:00:08;;;;;;;23.27;14.40;;;;;;;2.37;62.28;95901.75;5123823;27;20499;-44
2021/01/09 11:02:34;;;;;;;25.58;15.68;;;;;;;2.23;62.98;95916.84;5133099;27;20518;-46
2021/01/09 11:05:01;;;;;;;22.92;14.30;;;;;;;1.92;62.95;95913.56;5132787;27;20043;-44
2021/01/09 11:07:28;;;;;;;24.75;15.45;;;;;;;1.70;64.24;95912.13;5126818;27;20043;-44
2021/01/09 11:09:55;;;;;;;23.70;14.07;;;;;;;1.17;65.76;95915.31;5126140;27;20126;-42
2021/01/09 11:12:23;;;;;;;24.02;14.40;;;;;;;1.03;66.48;95919.63;5130687;27;20095;-46
2021/01/09 11:14:52;;;;;;;27.10;15.35;;;;;;;0.67;67.89;95917.03;5124550;27;20482;-43
2021/01/09 11:17:19;;;;;;;21.58;12.45;;;;;;;0.64;67.29;95909.59;5126137;27;20051;-46
2021/01/09 11:19:45;;;;;;;20.58;12.55;;;;;;;0.76;67.24;95913.84;5129246;27;20051;-44
2021/01/09 11:22:12;;;;;;;19.27;12.30;;;;;;;1.11;65.06;95910.28;5132264;27;20053;-46
2021/01/09 11:24:38;;;;;;;21.00;13.10;;;;;;;1.19;64.35;95895.59;5126781;27;20039;-44
2021/01/09 11:27:06;;;;;;;20.25;12.10;;;;;;;1.37;63.69;95884.31;5126479;27;20047;-44
2021/01/09 11:29:33;;;;;;;17.70;11.32;;;;;;;1.93;62.38;95902.63;5130203;27;20327;-44
2021/01/09 11:32:02;;;;;;;21.23;13.27;;;;;;;2.25;61.76;95906.69;5123943;27;20590;-44
2021/01/09 11:34:29;;;;;;;19.10;12.45;;;;;;;2.50;61.27;95903.78;5131145;27;20043;-44